sensor_id;sensor_type;location;lat;lon;timestamp;P1;durP1;ratioP1;P2;durP2;ratioP2
21272;SDS011;36726;52.328;10.552;2023-02-12T00:02:15;20.55;;;13.63;;
21272;SDS011;36726;52.328;10.552;2023-02-12T00:04:42;22.80;;;13.95;;
21272;SDS011;36726;52.328;10.552;2023-02-12T00:07:09;21.00;;;12.90;;
21272;SDS011;36726;52.328;10.552;2023-02-12T00:09:36;22.08;;;13.40;;
21272;SDS011;36726;52.328;10.552;2023-02-12T00:12:02;23.05;;;13.02;;
21272;SDS011;36726;52.328;10.552;2023-02-12T00:14:29;23.48;;;13.50;;
21272;SDS011;36726;52.328;10.552;2023-02-12T00:16:56;19.02;;;12.85;;
21272;SDS011;36726;52.328;10.552;2023-02-12T00:19:22;20.83;;;13.95;;
21272;SDS011;36726;52.328;10.552;2023-02-12T00:21:49;27.10;;;13.73;;
21272;SDS011;36726;52.328;10.552;2023-02-12T00:24:16;19.27;;;12.57;;
21272;SDS011;36726;52.328;10.552;2023-02-12T00:26:42;24.17;;;13.35;;
21272;SDS011;36726;52.328;10.552;2023-02-12T00:29:09;23.02;;;13.32;;
21272;SDS011;36726;52.328;10.552;2023-02-12T00:31:36;21.75;;;12.98;;
21272;SDS011;36726;52.328;10.552;2023-02-12T00:34:03;19.48;;;13.20;;
21272;SDS011;36726;52.328;10.552;2023-02-12T00:36:29;20.45;;;12.77;;
21272;SDS011;36726;52.328;10.552;2023-02-12T00:38:57;22.35;;;13.52;;
21272;SDS011;36726;52.328;10.552;2023-02-12T00:41:25;18.73;;;13.00;;
21272;SDS011;36726;52.328;10.552;2023-02-12T00:43:51;21.50;;;13.50;;
21272;SDS011;36726;52.328;10.552;2023-02-12T00:46:18;22.02;;;13.77;;
21272;SDS011;36726;52.328;10.552;2023-02-12T00:48:46;26.55;;;14.23;;
21272;SDS011;36726;52.328;10.552;2023-02-12T00:51:13;22.83;;;13.60;;
21272;SDS011;36726;52.328;10.552;2023-02-12T00:53:40;22.05;;;13.57;;
21272;SDS011;36726;52.328;10.552;2023-02-12T00:56:06;22.55;;;12.75;;
21272;SDS011;36726;52.328;10.552;2023-02-12T00:58:33;22.00;;;13.23;;
21272;SDS011;36726;52.328;10.552;2023-02-12T01:01:00;23.98;;;13.25;;
21272;SDS011;36726;52.328;10.552;2023-02-12T01:03:27;22.75;;;12.98;;
21272;SDS011;36726;52.328;10.552;2023-02-12T01:05:53;21.80;;;13.13;;
21272;SDS011;36726;52.328;10.552;2023-02-12T01:08:20;20.48;;;12.82;;
21272;SDS011;36726;52.328;10.552;2023-02-12T01:11:02;22.20;;;13.40;;
21272;SDS011;36726;52.328;10.552;2023-02-12T01:13:30;19.35;;;12.43;;
21272;SDS011;36726;52.328;10.552;2023-02-12T01:16:02;18.42;;;12.40;;
21272;SDS011;36726;52.328;10.552;2023-02-12T01:18:36;21.63;;;12.82;;
21272;SDS011;36726;52.328;10.552;2023-02-12T01:21:24;20.55;;;12.88;;
21272;SDS011;36726;52.328;10.552;2023-02-12T01:23:54;18.85;;;12.55;;
21272;SDS011;36726;52.328;10.552;2023-02-12T01:26:22;23.67;;;12.73;;
21272;SDS011;36726;52.328;10.552;2023-02-12T01:28:51;24.95;;;13.13;;
21272;SDS011;36726;52.328;10.552;2023-02-12T01:31:21;21.08;;;13.38;;
21272;SDS011;36726;52.328;10.552;2023-02-12T01:33:50;20.95;;;12.00;;
21272;SDS011;36726;52.328;10.552;2023-02-12T01:36:18;28.35;;;14.80;;
21272;SDS011;36726;52.328;10.552;2023-02-12T01:38:47;24.10;;;13.10;;
21272;SDS011;36726;52.328;10.552;2023-02-12T01:41:15;22.08;;;12.93;;
21272;SDS011;36726;52.328;10.552;2023-02-12T01:43:44;22.40;;;13.20;;
21272;SDS011;36726;52.328;10.552;2023-02-12T01:46:13;22.73;;;13.02;;
21272;SDS011;36726;52.328;10.552;2023-02-12T01:48:42;21.98;;;13.25;;
21272;SDS011;36726;52.328;10.552;2023-02-12T01:51:14;24.58;;;13.70;;
21272;SDS011;36726;52.328;10.552;2023-02-12T01:53:46;21.08;;;12.80;;
21272;SDS011;36726;52.328;10.552;2023-02-12T01:56:15;23.58;;;13.18;;
21272;SDS011;36726;52.328;10.552;2023-02-12T01:58:43;21.15;;;13.02;;
21272;SDS011;36726;52.328;10.552;2023-02-12T02:01:14;21.58;;;13.77;;
21272;SDS011;36726;52.328;10.552;2023-02-12T02:03:47;26.52;;;14.50;;
21272;SDS011;36726;52.328;10.552;2023-02-12T02:06:21;26.75;;;13.75;;
21272;SDS011;36726;52.328;10.552;2023-02-12T02:08:58;23.88;;;13.80;;
21272;SDS011;36726;52.328;10.552;2023-02-12T02:11:25;18.85;;;13.02;;
21272;SDS011;36726;52.328;10.552;2023-02-12T02:14:11;21.45;;;13.18;;
21272;SDS011;36726;52.328;10.552;2023-02-12T02:17:09;21.65;;;13.25;;
21272;SDS011;36726;52.328;10.552;2023-02-12T02:22:29;18.25;;;12.63;;
21272;SDS011;36726;52.328;10.552;2023-02-12T02:28:19;21.48;;;13.10;;
21272;SDS011;36726;52.328;10.552;2023-02-12T02:30:51;26.05;;;13.63;;
21272;SDS011;36726;52.328;10.552;2023-02-12T02:33:57;20.80;;;13.68;;
21272;SDS011;36726;52.328;10.552;2023-02-12T02:36:38;28.15;;;13.68;;
21272;SDS011;36726;52.328;10.552;2023-02-12T02:39:30;25.60;;;13.15;;
21272;SDS011;36726;52.328;10.552;2023-02-12T02:42:14;23.45;;;13.90;;
21272;SDS011;36726;52.328;10.552;2023-02-12T02:44:54;22.60;;;13.38;;
21272;SDS011;36726;52.328;10.552;2023-02-12T02:47:28;22.25;;;13.45;;
21272;SDS011;36726;52.328;10.552;2023-02-12T02:50:13;24.77;;;13.50;;
21272;SDS011;36726;52.328;10.552;2023-02-12T02:52:44;22.38;;;13.50;;
21272;SDS011;36726;52.328;10.552;2023-02-12T02:55:16;18.88;;;12.15;;
21272;SDS011;36726;52.328;10.552;2023-02-12T02:57:51;21.08;;;12.38;;
21272;SDS011;36726;52.328;10.552;2023-02-12T03:00:30;22.45;;;12.05;;
21272;SDS011;36726;52.328;10.552;2023-02-12T03:05:59;22.80;;;12.88;;
21272;SDS011;36726;52.328;10.552;2023-02-12T03:08:37;22.88;;;11.68;;
21272;SDS011;36726;52.328;10.552;2023-02-12T03:11:12;22.90;;;11.85;;
21272;SDS011;36726;52.328;10.552;2023-02-12T03:13:45;24.00;;;12.25;;
21272;SDS011;36726;52.328;10.552;2023-02-12T03:18:54;21.35;;;11.70;;
21272;SDS011;36726;52.328;10.552;2023-02-12T03:21:28;20.08;;;11.50;;
21272;SDS011;36726;52.328;10.552;2023-02-12T03:24:11;20.33;;;11.10;;
21272;SDS011;36726;52.328;10.552;2023-02-12T03:26:46;19.80;;;11.00;;
21272;SDS011;36726;52.328;10.552;2023-02-12T03:29:16;22.85;;;11.40;;
21272;SDS011;36726;52.328;10.552;2023-02-12T03:31:50;23.88;;;10.90;;
21272;SDS011;36726;52.328;10.552;2023-02-12T03:37:35;19.48;;;10.80;;
21272;SDS011;36726;52.328;10.552;2023-02-12T03:40:27;23.00;;;11.30;;
21272;SDS011;36726;52.328;10.552;2023-02-12T03:43:14;24.30;;;11.55;;
21272;SDS011;36726;52.328;10.552;2023-02-12T03:48:34;25.08;;;11.10;;
21272;SDS011;36726;52.328;10.552;2023-02-12T03:51:14;18.50;;;11.75;;
21272;SDS011;36726;52.328;10.552;2023-02-12T03:53:45;19.63;;;10.85;;
21272;SDS011;36726;52.328;10.552;2023-02-12T03:56:15;21.10;;;11.50;;
21272;SDS011;36726;52.328;10.552;2023-02-12T03:58:45;25.42;;;11.32;;
21272;SDS011;36726;52.328;10.552;2023-02-12T04:01:12;19.45;;;10.98;;
21272;SDS011;36726;52.328;10.552;2023-02-12T04:03:39;21.42;;;11.13;;
21272;SDS011;36726;52.328;10.552;2023-02-12T04:06:19;16.88;;;10.55;;
21272;SDS011;36726;52.328;10.552;2023-02-12T04:08:48;20.38;;;10.50;;
21272;SDS011;36726;52.328;10.552;2023-02-12T04:16:46;18.73;;;11.55;;
21272;SDS011;36726;52.328;10.552;2023-02-12T04:19:24;22.08;;;11.38;;
21272;SDS011;36726;52.328;10.552;2023-02-12T04:22:08;22.67;;;11.25;;
21272;SDS011;36726;52.328;10.552;2023-02-12T04:24:57;17.95;;;10.73;;
21272;SDS011;36726;52.328;10.552;2023-02-12T04:27:59;19.42;;;10.82;;
21272;SDS011;36726;52.328;10.552;2023-02-12T04:30:41;20.50;;;10.75;;
21272;SDS011;36726;52.328;10.552;2023-02-12T04:33:15;21.33;;;11.43;;
21272;SDS011;36726;52.328;10.552;2023-02-12T04:35:47;20.42;;;12.27;;
21272;SDS011;36726;52.328;10.552;2023-02-12T04:38:31;17.70;;;11.23;;
21272;SDS011;36726;52.328;10.552;2023-02-12T04:41:05;17.52;;;11.05;;
21272;SDS011;36726;52.328;10.552;2023-02-12T04:43:35;19.77;;;11.60;;
21272;SDS011;36726;52.328;10.552;2023-02-12T04:46:03;16.88;;;10.65;;
21272;SDS011;36726;52.328;10.552;2023-02-12T04:48:32;17.25;;;10.50;;
21272;SDS011;36726;52.328;10.552;2023-02-12T04:51:00;16.58;;;10.52;;
21272;SDS011;36726;52.328;10.552;2023-02-12T04:53:27;17.20;;;11.30;;
21272;SDS011;36726;52.328;10.552;2023-02-12T04:55:54;19.23;;;11.25;;
21272;SDS011;36726;52.328;10.552;2023-02-12T04:58:21;22.20;;;10.88;;
21272;SDS011;36726;52.328;10.552;2023-02-12T05:00:47;18.90;;;10.40;;
21272;SDS011;36726;52.328;10.552;2023-02-12T05:03:14;17.85;;;10.32;;
21272;SDS011;36726;52.328;10.552;2023-02-12T05:05:41;19.20;;;10.27;;
21272;SDS011;36726;52.328;10.552;2023-02-12T05:08:07;20.23;;;10.57;;
21272;SDS011;36726;52.328;10.552;2023-02-12T05:10:33;22.40;;;11.23;;
21272;SDS011;36726;52.328;10.552;2023-02-12T05:13:00;21.35;;;11.63;;
21272;SDS011;36726;52.328;10.552;2023-02-12T05:15:26;20.27;;;11.25;;
21272;SDS011;36726;52.328;10.552;2023-02-12T05:17:53;21.90;;;11.95;;
21272;SDS011;36726;52.328;10.552;2023-02-12T05:20:19;19.63;;;11.10;;
21272;SDS011;36726;52.328;10.552;2023-02-12T05:22:49;20.65;;;11.75;;
21272;SDS011;36726;52.328;10.552;2023-02-12T05:25:17;20.50;;;11.60;;
21272;SDS011;36726;52.328;10.552;2023-02-12T05:27:43;21.77;;;12.07;;
21272;SDS011;36726;52.328;10.552;2023-02-12T05:30:10;21.00;;;10.73;;
21272;SDS011;36726;52.328;10.552;2023-02-12T05:32:37;20.52;;;10.70;;
21272;SDS011;36726;52.328;10.552;2023-02-12T05:35:04;18.02;;;11.70;;
21272;SDS011;36726;52.328;10.552;2023-02-12T05:37:33;23.55;;;11.52;;
21272;SDS011;36726;52.328;10.552;2023-02-12T05:40:04;19.70;;;11.52;;
21272;SDS011;36726;52.328;10.552;2023-02-12T05:42:31;27.45;;;11.60;;
21272;SDS011;36726;52.328;10.552;2023-02-12T05:44:58;17.55;;;11.85;;
21272;SDS011;36726;52.328;10.552;2023-02-12T05:47:25;21.65;;;12.73;;
21272;SDS011;36726;52.328;10.552;2023-02-12T05:49:51;21.95;;;12.38;;
21272;SDS011;36726;52.328;10.552;2023-02-12T05:52:18;22.23;;;12.10;;
21272;SDS011;36726;52.328;10.552;2023-02-12T05:54:47;21.70;;;11.70;;
21272;SDS011;36726;52.328;10.552;2023-02-12T05:57:14;23.00;;;12.85;;
21272;SDS011;36726;52.328;10.552;2023-02-12T05:59:41;22.98;;;12.63;;
21272;SDS011;36726;52.328;10.552;2023-02-12T06:02:07;20.15;;;11.73;;
21272;SDS011;36726;52.328;10.552;2023-02-12T06:04:36;21.05;;;12.60;;
21272;SDS011;36726;52.328;10.552;2023-02-12T06:07:03;22.48;;;11.70;;
21272;SDS011;36726;52.328;10.552;2023-02-12T06:09:29;22.05;;;12.07;;
21272;SDS011;36726;52.328;10.552;2023-02-12T06:11:56;26.08;;;12.13;;
21272;SDS011;36726;52.328;10.552;2023-02-12T06:14:22;24.10;;;12.20;;
21272;SDS011;36726;52.328;10.552;2023-02-12T06:16:49;19.17;;;11.40;;
21272;SDS011;36726;52.328;10.552;2023-02-12T06:19:17;23.92;;;11.18;;
21272;SDS011;36726;52.328;10.552;2023-02-12T06:21:45;25.60;;;11.80;;
21272;SDS011;36726;52.328;10.552;2023-02-12T06:24:12;24.98;;;12.25;;
21272;SDS011;36726;52.328;10.552;2023-02-12T06:26:40;26.00;;;11.50;;
21272;SDS011;36726;52.328;10.552;2023-02-12T06:29:08;23.20;;;11.80;;
21272;SDS011;36726;52.328;10.552;2023-02-12T06:31:35;20.88;;;12.15;;
21272;SDS011;36726;52.328;10.552;2023-02-12T06:34:03;22.05;;;11.63;;
21272;SDS011;36726;52.328;10.552;2023-02-12T06:36:31;24.98;;;13.23;;
21272;SDS011;36726;52.328;10.552;2023-02-12T06:39:02;20.70;;;12.20;;
21272;SDS011;36726;52.328;10.552;2023-02-12T06:41:29;23.38;;;12.80;;
21272;SDS011;36726;52.328;10.552;2023-02-12T06:43:55;21.92;;;12.27;;
21272;SDS011;36726;52.328;10.552;2023-02-12T06:46:22;27.02;;;13.38;;
21272;SDS011;36726;52.328;10.552;2023-02-12T06:48:51;20.08;;;12.13;;
21272;SDS011;36726;52.328;10.552;2023-02-12T06:51:20;23.90;;;12.80;;
21272;SDS011;36726;52.328;10.552;2023-02-12T06:53:50;18.75;;;11.70;;
21272;SDS011;36726;52.328;10.552;2023-02-12T06:56:18;20.50;;;11.57;;
21272;SDS011;36726;52.328;10.552;2023-02-12T06:58:46;25.17;;;12.70;;
21272;SDS011;36726;52.328;10.552;2023-02-12T07:01:20;21.77;;;11.70;;
21272;SDS011;36726;52.328;10.552;2023-02-12T07:03:50;25.02;;;11.95;;
21272;SDS011;36726;52.328;10.552;2023-02-12T07:06:18;25.50;;;12.32;;
21272;SDS011;36726;52.328;10.552;2023-02-12T07:08:45;23.90;;;11.30;;
21272;SDS011;36726;52.328;10.552;2023-02-12T07:11:12;25.48;;;11.30;;
21272;SDS011;36726;52.328;10.552;2023-02-12T07:13:39;27.92;;;14.02;;
21272;SDS011;36726;52.328;10.552;2023-02-12T07:16:07;22.27;;;12.13;;
21272;SDS011;36726;52.328;10.552;2023-02-12T07:18:37;23.35;;;12.60;;
21272;SDS011;36726;52.328;10.552;2023-02-12T07:21:05;24.60;;;12.32;;
21272;SDS011;36726;52.328;10.552;2023-02-12T07:23:33;24.95;;;12.13;;
21272;SDS011;36726;52.328;10.552;2023-02-12T07:26:02;21.73;;;12.50;;
21272;SDS011;36726;52.328;10.552;2023-02-12T07:28:30;23.05;;;12.05;;
21272;SDS011;36726;52.328;10.552;2023-02-12T07:31:00;18.70;;;12.00;;
21272;SDS011;36726;52.328;10.552;2023-02-12T07:33:33;21.17;;;12.63;;
21272;SDS011;36726;52.328;10.552;2023-02-12T07:36:00;26.88;;;13.18;;
21272;SDS011;36726;52.328;10.552;2023-02-12T07:38:27;33.38;;;12.25;;
21272;SDS011;36726;52.328;10.552;2023-02-12T07:40:54;21.70;;;12.27;;
21272;SDS011;36726;52.328;10.552;2023-02-12T07:43:40;25.00;;;11.95;;
21272;SDS011;36726;52.328;10.552;2023-02-12T07:48:43;22.83;;;12.50;;
21272;SDS011;36726;52.328;10.552;2023-02-12T07:51:12;21.67;;;11.95;;
21272;SDS011;36726;52.328;10.552;2023-02-12T07:53:40;23.50;;;12.98;;
21272;SDS011;36726;52.328;10.552;2023-02-12T07:56:09;19.85;;;11.80;;
21272;SDS011;36726;52.328;10.552;2023-02-12T08:01:42;31.25;;;11.85;;
21272;SDS011;36726;52.328;10.552;2023-02-12T08:04:13;19.55;;;11.27;;
21272;SDS011;36726;52.328;10.552;2023-02-12T08:06:42;21.02;;;11.35;;
21272;SDS011;36726;52.328;10.552;2023-02-12T08:09:12;19.83;;;12.15;;
21272;SDS011;36726;52.328;10.552;2023-02-12T08:11:42;20.02;;;11.25;;
21272;SDS011;36726;52.328;10.552;2023-02-12T08:14:10;21.10;;;10.60;;
21272;SDS011;36726;52.328;10.552;2023-02-12T08:16:39;16.83;;;9.57;;
21272;SDS011;36726;52.328;10.552;2023-02-12T08:19:08;20.80;;;10.32;;
21272;SDS011;36726;52.328;10.552;2023-02-12T08:21:45;15.98;;;9.95;;
21272;SDS011;36726;52.328;10.552;2023-02-12T08:24:14;17.20;;;9.23;;
21272;SDS011;36726;52.328;10.552;2023-02-12T08:26:40;12.98;;;9.25;;
21272;SDS011;36726;52.328;10.552;2023-02-12T08:29:08;16.70;;;9.75;;
21272;SDS011;36726;52.328;10.552;2023-02-12T08:31:38;15.02;;;9.43;;
21272;SDS011;36726;52.328;10.552;2023-02-12T08:34:09;17.48;;;9.10;;
21272;SDS011;36726;52.328;10.552;2023-02-12T08:36:42;15.57;;;8.95;;
21272;SDS011;36726;52.328;10.552;2023-02-12T08:39:10;16.88;;;9.15;;
21272;SDS011;36726;52.328;10.552;2023-02-12T08:41:37;17.75;;;9.30;;
21272;SDS011;36726;52.328;10.552;2023-02-12T08:44:04;15.25;;;8.60;;
21272;SDS011;36726;52.328;10.552;2023-02-12T08:46:31;13.30;;;7.57;;
21272;SDS011;36726;52.328;10.552;2023-02-12T08:49:21;16.20;;;9.02;;
21272;SDS011;36726;52.328;10.552;2023-02-12T08:51:49;12.02;;;6.95;;
21272;SDS011;36726;52.328;10.552;2023-02-12T08:54:22;12.30;;;7.75;;
21272;SDS011;36726;52.328;10.552;2023-02-12T08:56:53;13.20;;;8.00;;
21272;SDS011;36726;52.328;10.552;2023-02-12T08:59:25;16.23;;;9.32;;
21272;SDS011;36726;52.328;10.552;2023-02-12T09:01:52;14.35;;;8.80;;
21272;SDS011;36726;52.328;10.552;2023-02-12T09:04:23;15.32;;;8.75;;
21272;SDS011;36726;52.328;10.552;2023-02-12T09:06:52;15.18;;;8.98;;
21272;SDS011;36726;52.328;10.552;2023-02-12T09:09:19;14.40;;;9.45;;
21272;SDS011;36726;52.328;10.552;2023-02-12T09:11:48;13.40;;;8.60;;
21272;SDS011;36726;52.328;10.552;2023-02-12T09:14:16;17.35;;;8.30;;
21272;SDS011;36726;52.328;10.552;2023-02-12T09:16:44;20.52;;;8.93;;
21272;SDS011;36726;52.328;10.552;2023-02-12T09:19:11;13.65;;;8.07;;
21272;SDS011;36726;52.328;10.552;2023-02-12T09:21:39;12.70;;;7.70;;
21272;SDS011;36726;52.328;10.552;2023-02-12T09:24:06;12.38;;;8.40;;
21272;SDS011;36726;52.328;10.552;2023-02-12T09:26:33;11.57;;;8.27;;
21272;SDS011;36726;52.328;10.552;2023-02-12T09:29:02;14.45;;;8.40;;
21272;SDS011;36726;52.328;10.552;2023-02-12T09:31:31;15.48;;;8.30;;
21272;SDS011;36726;52.328;10.552;2023-02-12T09:34:03;13.77;;;9.00;;
21272;SDS011;36726;52.328;10.552;2023-02-12T09:36:31;15.93;;;8.50;;
21272;SDS011;36726;52.328;10.552;2023-02-12T09:38:58;15.20;;;8.75;;
21272;SDS011;36726;52.328;10.552;2023-02-12T09:41:45;13.32;;;8.80;;
21272;SDS011;36726;52.328;10.552;2023-02-12T09:44:19;15.13;;;9.15;;
21272;SDS011;36726;52.328;10.552;2023-02-12T09:46:54;17.58;;;9.30;;
21272;SDS011;36726;52.328;10.552;2023-02-12T09:52:07;19.35;;;9.30;;
21272;SDS011;36726;52.328;10.552;2023-02-12T09:54:40;19.65;;;10.55;;
21272;SDS011;36726;52.328;10.552;2023-02-12T09:57:42;27.50;;;12.90;;
21272;SDS011;36726;52.328;10.552;2023-02-12T10:00:04;21.45;;;11.57;;
21272;SDS011;36726;52.328;10.552;2023-02-12T10:02:43;16.92;;;9.00;;
21272;SDS011;36726;52.328;10.552;2023-02-12T10:05:22;15.05;;;8.48;;
21272;SDS011;36726;52.328;10.552;2023-02-12T10:10:44;23.25;;;9.02;;
21272;SDS011;36726;52.328;10.552;2023-02-12T10:13:23;14.63;;;8.00;;
21272;SDS011;36726;52.328;10.552;2023-02-12T10:16:24;13.70;;;8.10;;
21272;SDS011;36726;52.328;10.552;2023-02-12T10:27:19;25.10;;;15.70;;
21272;SDS011;36726;52.328;10.552;2023-02-12T10:29:59;26.63;;;15.15;;
21272;SDS011;36726;52.328;10.552;2023-02-12T10:32:39;23.92;;;14.75;;
21272;SDS011;36726;52.328;10.552;2023-02-12T10:35:13;22.33;;;14.45;;
21272;SDS011;36726;52.328;10.552;2023-02-12T10:38:00;26.33;;;14.90;;
21272;SDS011;36726;52.328;10.552;2023-02-12T10:40:33;22.23;;;13.15;;
21272;SDS011;36726;52.328;10.552;2023-02-12T10:43:03;23.17;;;11.98;;
21272;SDS011;36726;52.328;10.552;2023-02-12T10:45:31;18.70;;;11.60;;
21272;SDS011;36726;52.328;10.552;2023-02-12T10:48:03;20.15;;;12.15;;
21272;SDS011;36726;52.328;10.552;2023-02-12T10:50:39;25.02;;;12.05;;
21272;SDS011;36726;52.328;10.552;2023-02-12T10:53:20;19.92;;;11.93;;
21272;SDS011;36726;52.328;10.552;2023-02-12T10:56:17;19.52;;;11.45;;
21272;SDS011;36726;52.328;10.552;2023-02-12T11:01:18;24.02;;;10.48;;
21272;SDS011;36726;52.328;10.552;2023-02-12T11:03:47;16.15;;;9.90;;
21272;SDS011;36726;52.328;10.552;2023-02-12T11:06:18;16.55;;;9.55;;
21272;SDS011;36726;52.328;10.552;2023-02-12T11:08:56;16.00;;;9.68;;
21272;SDS011;36726;52.328;10.552;2023-02-12T11:11:27;17.17;;;10.35;;
21272;SDS011;36726;52.328;10.552;2023-02-12T11:14:18;19.52;;;10.73;;
21272;SDS011;36726;52.328;10.552;2023-02-12T11:19:24;15.15;;;9.70;;
21272;SDS011;36726;52.328;10.552;2023-02-12T11:22:05;16.95;;;10.30;;
21272;SDS011;36726;52.328;10.552;2023-02-12T11:24:36;18.42;;;11.18;;
21272;SDS011;36726;52.328;10.552;2023-02-12T11:29:42;18.83;;;10.23;;
21272;SDS011;36726;52.328;10.552;2023-02-12T11:32:16;21.77;;;10.90;;
21272;SDS011;36726;52.328;10.552;2023-02-12T11:37:44;18.17;;;11.43;;
21272;SDS011;36726;52.328;10.552;2023-02-12T11:40:22;20.73;;;11.43;;
21272;SDS011;36726;52.328;10.552;2023-02-12T11:42:51;16.13;;;10.75;;
21272;SDS011;36726;52.328;10.552;2023-02-12T11:45:30;21.65;;;12.48;;
21272;SDS011;36726;52.328;10.552;2023-02-12T11:47:59;26.75;;;13.40;;
21272;SDS011;36726;52.328;10.552;2023-02-12T11:50:28;29.08;;;13.13;;
21272;SDS011;36726;52.328;10.552;2023-02-12T11:52:57;21.15;;;12.00;;
21272;SDS011;36726;52.328;10.552;2023-02-12T11:55:34;27.33;;;15.80;;
21272;SDS011;36726;52.328;10.552;2023-02-12T11:58:14;22.48;;;12.48;;
21272;SDS011;36726;52.328;10.552;2023-02-12T12:00:52;25.60;;;12.38;;
21272;SDS011;36726;52.328;10.552;2023-02-12T12:11:37;22.13;;;12.95;;
21272;SDS011;36726;52.328;10.552;2023-02-12T12:14:21;23.25;;;13.10;;
21272;SDS011;36726;52.328;10.552;2023-02-12T12:16:58;26.02;;;14.25;;
21272;SDS011;36726;52.328;10.552;2023-02-12T12:20:03;24.98;;;14.23;;
21272;SDS011;36726;52.328;10.552;2023-02-12T12:22:45;29.00;;;15.45;;
21272;SDS011;36726;52.328;10.552;2023-02-12T12:27:53;30.67;;;16.15;;
21272;SDS011;36726;52.328;10.552;2023-02-12T12:30:36;32.72;;;17.05;;
21272;SDS011;36726;52.328;10.552;2023-02-12T12:39:51;26.42;;;13.82;;
21272;SDS011;36726;52.328;10.552;2023-02-12T12:48:47;20.70;;;11.88;;
21272;SDS011;36726;52.328;10.552;2023-02-12T12:51:19;26.25;;;13.02;;
21272;SDS011;36726;52.328;10.552;2023-02-12T12:56:47;17.52;;;11.30;;
21272;SDS011;36726;52.328;10.552;2023-02-12T13:02:27;22.33;;;11.43;;
21272;SDS011;36726;52.328;10.552;2023-02-12T13:05:22;21.75;;;11.07;;
21272;SDS011;36726;52.328;10.552;2023-02-12T13:08:51;17.40;;;11.30;;
21272;SDS011;36726;52.328;10.552;2023-02-12T13:13:52;24.70;;;11.32;;
21272;SDS011;36726;52.328;10.552;2023-02-12T13:16:29;19.90;;;11.52;;
21272;SDS011;36726;52.328;10.552;2023-02-12T13:19:07;19.92;;;11.07;;
21272;SDS011;36726;52.328;10.552;2023-02-12T13:24:46;20.02;;;11.77;;
21272;SDS011;36726;52.328;10.552;2023-02-12T13:27:24;21.13;;;10.50;;
21272;SDS011;36726;52.328;10.552;2023-02-12T13:30:04;18.33;;;9.68;;
21272;SDS011;36726;52.328;10.552;2023-02-12T13:32:33;19.85;;;10.75;;
21272;SDS011;36726;52.328;10.552;2023-02-12T13:35:04;18.38;;;10.57;;
21272;SDS011;36726;52.328;10.552;2023-02-12T13:37:42;19.42;;;9.95;;
21272;SDS011;36726;52.328;10.552;2023-02-12T13:40:18;17.90;;;9.38;;
21272;SDS011;36726;52.328;10.552;2023-02-12T13:42:49;19.15;;;8.80;;
21272;SDS011;36726;52.328;10.552;2023-02-12T13:45:26;15.07;;;8.95;;
21272;SDS011;36726;52.328;10.552;2023-02-12T13:57:07;21.50;;;10.88;;
21272;SDS011;36726;52.328;10.552;2023-02-12T13:59:38;17.35;;;9.20;;
21272;SDS011;36726;52.328;10.552;2023-02-12T14:07:41;16.98;;;9.20;;
21272;SDS011;36726;52.328;10.552;2023-02-12T14:10:45;16.33;;;9.35;;
21272;SDS011;36726;52.328;10.552;2023-02-12T14:13:14;16.67;;;9.07;;
21272;SDS011;36726;52.328;10.552;2023-02-12T14:15:46;14.65;;;9.23;;
21272;SDS011;36726;52.328;10.552;2023-02-12T14:18:24;18.75;;;9.32;;
21272;SDS011;36726;52.328;10.552;2023-02-12T14:23:39;15.77;;;9.07;;
21272;SDS011;36726;52.328;10.552;2023-02-12T14:28:54;15.88;;;8.82;;
21272;SDS011;36726;52.328;10.552;2023-02-12T14:31:34;15.70;;;8.80;;
21272;SDS011;36726;52.328;10.552;2023-02-12T14:41:31;14.18;;;8.10;;
21272;SDS011;36726;52.328;10.552;2023-02-12T14:46:52;14.93;;;8.20;;
21272;SDS011;36726;52.328;10.552;2023-02-12T14:49:25;18.08;;;8.25;;
21272;SDS011;36726;52.328;10.552;2023-02-12T14:52:06;13.63;;;7.78;;
21272;SDS011;36726;52.328;10.552;2023-02-12T14:54:42;13.18;;;7.72;;
21272;SDS011;36726;52.328;10.552;2023-02-12T14:57:32;12.02;;;7.55;;
21272;SDS011;36726;52.328;10.552;2023-02-12T15:00:03;11.60;;;7.13;;
21272;SDS011;36726;52.328;10.552;2023-02-12T15:02:32;12.02;;;7.25;;
21272;SDS011;36726;52.328;10.552;2023-02-12T15:05:03;11.60;;;6.68;;
21272;SDS011;36726;52.328;10.552;2023-02-12T15:07:59;15.55;;;8.35;;
21272;SDS011;36726;52.328;10.552;2023-02-12T15:10:31;12.48;;;7.18;;
21272;SDS011;36726;52.328;10.552;2023-02-12T15:13:19;14.15;;;7.70;;
21272;SDS011;36726;52.328;10.552;2023-02-12T15:15:57;10.32;;;7.40;;
21272;SDS011;36726;52.328;10.552;2023-02-12T15:18:49;14.13;;;6.93;;
21272;SDS011;36726;52.328;10.552;2023-02-12T15:24:01;10.95;;;6.80;;
21272;SDS011;36726;52.328;10.552;2023-02-12T15:26:33;15.07;;;7.45;;
21272;SDS011;36726;52.328;10.552;2023-02-12T15:29:03;14.70;;;6.95;;
21272;SDS011;36726;52.328;10.552;2023-02-12T15:31:31;10.48;;;6.57;;
21272;SDS011;36726;52.328;10.552;2023-02-12T15:34:00;9.93;;;6.53;;
21272;SDS011;36726;52.328;10.552;2023-02-12T15:36:30;10.75;;;5.90;;
21272;SDS011;36726;52.328;10.552;2023-02-12T15:39:02;9.30;;;6.47;;
21272;SDS011;36726;52.328;10.552;2023-02-12T15:43:59;11.60;;;6.82;;
21272;SDS011;36726;52.328;10.552;2023-02-12T15:46:28;11.35;;;7.05;;
21272;SDS011;36726;52.328;10.552;2023-02-12T15:48:55;11.15;;;6.90;;
21272;SDS011;36726;52.328;10.552;2023-02-12T15:51:32;9.80;;;6.68;;
21272;SDS011;36726;52.328;10.552;2023-02-12T15:54:03;9.88;;;6.90;;
21272;SDS011;36726;52.328;10.552;2023-02-12T15:56:31;11.77;;;7.35;;
21272;SDS011;36726;52.328;10.552;2023-02-12T15:59:02;10.45;;;6.88;;
21272;SDS011;36726;52.328;10.552;2023-02-12T16:01:30;10.95;;;7.32;;
21272;SDS011;36726;52.328;10.552;2023-02-12T16:04:01;9.23;;;6.82;;
21272;SDS011;36726;52.328;10.552;2023-02-12T16:06:32;12.63;;;7.72;;
21272;SDS011;36726;52.328;10.552;2023-02-12T16:11:29;13.32;;;8.43;;
21272;SDS011;36726;52.328;10.552;2023-02-12T16:14:01;16.52;;;10.50;;
21272;SDS011;36726;52.328;10.552;2023-02-12T16:16:51;17.88;;;12.10;;
21272;SDS011;36726;52.328;10.552;2023-02-12T16:19:22;18.15;;;10.90;;
21272;SDS011;36726;52.328;10.552;2023-02-12T16:24:32;22.38;;;12.38;;
21272;SDS011;36726;52.328;10.552;2023-02-12T16:27:15;19.50;;;12.50;;
21272;SDS011;36726;52.328;10.552;2023-02-12T16:29:47;23.83;;;12.05;;
21272;SDS011;36726;52.328;10.552;2023-02-12T16:32:49;18.17;;;11.10;;
21272;SDS011;36726;52.328;10.552;2023-02-12T16:47:59;12.13;;;6.55;;
21272;SDS011;36726;52.328;10.552;2023-02-12T16:50:33;13.63;;;7.28;;
21272;SDS011;36726;52.328;10.552;2023-02-12T16:53:06;12.93;;;7.45;;
21272;SDS011;36726;52.328;10.552;2023-02-12T16:55:47;12.07;;;6.72;;
21272;SDS011;36726;52.328;10.552;2023-02-12T16:58:15;10.38;;;7.35;;
21272;SDS011;36726;52.328;10.552;2023-02-12T17:00:42;12.23;;;7.07;;
21272;SDS011;36726;52.328;10.552;2023-02-12T17:03:11;11.40;;;6.95;;
21272;SDS011;36726;52.328;10.552;2023-02-12T17:05:40;10.50;;;6.45;;
21272;SDS011;36726;52.328;10.552;2023-02-12T17:08:11;12.40;;;7.05;;